Time;durP1;ratioP1;P1;durP2;ratioP2;P2;SDS_P1;SDS_P2;PMS_P1;PMS_P2;Temp;Humidity;BMP_temperature;BMP_pressure;BME280_temperature;BME280_humidity;BME280_pressure;Samples;Min_cycle;Max_cycle;Signal;HPM_P1;HPM_P2
2023/09/30 00:01:22;;;;;;;1999.90;999.90;;;;;;;;;;5060728;28;20144;-87
2023/09/30 00:03:49;;;;;;;1999.90;999.90;;;;;;;;;;5056931;28;20045;-87
2023/09/30 00:06:17;;;;;;;1999.90;999.90;;;;;;;;;;5063922;28;20049;-88
2023/09/30 00:08:44;;;;;;;1999.90;999.90;;;;;;;;;;5058426;28;20095;-86
2023/09/30 00:11:11;;;;;;;1999.90;999.90;;;;;;;;;;5058525;28;20052;-87
2023/09/30 00:13:38;;;;;;;1999.90;999.90;;;;;;;;;;5058971;28;20049;-87
2023/09/30 00:16:05;;;;;;;1999.90;999.90;;;;;;;;;;5055762;28;20060;-87
2023/09/30 00:18:32;;;;;;;1999.90;999.90;;;;;;;;;;5059384;28;20048;-88
2023/09/30 00:20:58;;;;;;;1999.90;999.90;;;;;;;;;;5060767;28;20542;-87
2023/09/30 00:23:26;;;;;;;1999.90;999.90;;;;;;;;;;5058003;28;20413;-87
2023/09/30 00:25:53;;;;;;;1999.90;999.90;;;;;;;;;;5064211;28;20041;-87
2023/09/30 00:28:19;;;;;;;1999.90;999.90;;;;;;;;;;5064874;28;20488;-88
2023/09/30 00:30:47;;;;;;;1999.90;999.90;;;;;;;;;;5060444;28;20063;-86
2023/09/30 00:33:13;;;;;;;1999.90;999.90;;;;;;;;;;5059787;28;20056;-87
2023/09/30 00:35:40;;;;;;;1999.90;999.90;;;;;;;;;;5060982;28;20464;-87
2023/09/30 00:38:06;;;;;;;1999.90;999.90;;;;;;;;;;5060642;28;20057;-87
2023/09/30 00:40:35;;;;;;;1999.90;999.90;;;;;;;;;;5060699;28;20053;-87
2023/09/30 00:43:02;;;;;;;1999.90;999.90;;;;;;;;;;5059089;28;20126;-86
2023/09/30 00:45:29;;;;;;;1999.90;999.90;;;;;;;;;;5061454;28;20055;-87
2023/09/30 00:47:56;;;;;;;1999.90;999.90;;;;;;;;;;5060886;28;20063;-87
2023/09/30 00:50:23;;;;;;;1999.90;999.90;;;;;;;;;;5060271;28;20524;-88
2023/09/30 00:52:50;;;;;;;1999.90;999.90;;;;;;;;;;5059539;28;20511;-87
2023/09/30 00:55:17;;;;;;;1999.90;999.90;;;;;;;;;;5062176;28;20276;-88
2023/09/30 00:57:45;;;;;;;1999.90;999.90;;;;;;;;;;5056875;28;20045;-87
2023/09/30 01:00:12;;;;;;;1999.90;999.90;;;;;;;;;;5058924;28;20049;-86
2023/09/30 01:02:40;;;;;;;1999.90;999.90;;;;;;;;;;5070194;22;20440;-89
2023/09/30 01:05:07;;;;;;;1999.90;999.90;;;;;;;;;;5058100;28;20044;-89
2023/09/30 01:07:34;;;;;;;1999.90;999.90;;;;;;;;;;5060547;28;20048;-89
2023/09/30 01:10:01;;;;;;;1999.90;999.90;;;;;;;;;;5049531;28;20059;-91
2023/09/30 01:12:27;;;;;;;1999.90;999.90;;;;;;;;;;5052025;28;20049;-90
2023/09/30 01:15:00;;;;;;;1999.90;999.90;;;;;;;;;;5055848;28;20048;-88
2023/09/30 01:17:29;;;;;;;1999.90;999.90;;;;;;;;;;5053305;28;20061;-89
2023/09/30 01:19:56;;;;;;;1999.90;999.90;;;;;;;;;;5053714;28;20057;-89
2023/09/30 01:22:24;;;;;;;1999.90;999.90;;;;;;;;;;5051546;28;20052;-89
2023/09/30 01:24:50;;;;;;;1999.90;999.90;;;;;;;;;;5053328;28;20052;-89
2023/09/30 01:27:19;;;;;;;1999.90;999.90;;;;;;;;;;5055175;28;20894;-90
2023/09/30 01:29:45;;;;;;;1999.90;999.90;;;;;;;;;;5061405;28;20106;-90
2023/09/30 01:32:13;;;;;;;1999.90;999.90;;;;;;;;;;5057402;28;20080;-89
2023/09/30 01:34:40;;;;;;;1999.90;999.90;;;;;;;;;;5052309;28;20057;-90
2023/09/30 01:37:07;;;;;;;1999.90;999.90;;;;;;;;;;5055651;28;20048;-90
2023/09/30 01:39:35;;;;;;;1999.90;999.90;;;;;;;;;;5061327;28;20056;-90
2023/09/30 01:42:02;;;;;;;1999.90;999.90;;;;;;;;;;5060531;28;20048;-89
2023/09/30 01:44:28;;;;;;;1999.90;999.90;;;;;;;;;;5057520;28;20444;-91
2023/09/30 01:46:55;;;;;;;1999.90;999.90;;;;;;;;;;5070141;28;20118;-90
2023/09/30 01:49:24;;;;;;;1999.90;999.90;;;;;;;;;;5057380;28;20041;-89
2023/09/30 01:51:50;;;;;;;1999.90;999.90;;;;;;;;;;5058549;28;20135;-90
2023/09/30 01:54:17;;;;;;;1999.90;999.90;;;;;;;;;;5055660;28;20044;-91
2023/09/30 01:56:45;;;;;;;1999.90;999.90;;;;;;;;;;5065840;28;20051;-90
2023/09/30 01:59:11;;;;;;;1999.90;999.90;;;;;;;;;;5062510;28;20052;-90
2023/09/30 02:01:38;;;;;;;1999.90;999.90;;;;;;;;;;5062318;28;20420;-90
2023/09/30 02:04:06;;;;;;;1999.90;999.90;;;;;;;;;;5058945;28;20045;-89
2023/09/30 02:06:33;;;;;;;1999.90;999.90;;;;;;;;;;5059926;28;20045;-89
2023/09/30 02:09:00;;;;;;;1999.90;999.90;;;;;;;;;;5059739;28;20063;-91
2023/09/30 02:11:27;;;;;;;1999.90;999.90;;;;;;;;;;5056972;28;20045;-89
2023/09/30 02:13:59;;;;;;;1999.90;999.90;;;;;;;;;;5053339;28;20042;-90
2023/09/30 02:16:25;;;;;;;1999.90;999.90;;;;;;;;;;5062953;28;20404;-90
2023/09/30 02:18:53;;;;;;;1999.90;999.90;;;;;;;;;;5058713;28;20048;-89
2023/09/30 02:21:21;;;;;;;1999.90;999.90;;;;;;;;;;5047130;28;20049;-89
2023/09/30 02:23:48;;;;;;;1999.90;999.90;;;;;;;;;;5050952;28;20390;-91
2023/09/30 02:26:15;;;;;;;1999.90;999.90;;;;;;;;;;5051024;28;20049;-89
2023/09/30 02:28:41;;;;;;;1999.90;999.90;;;;;;;;;;5060141;28;20045;-89
2023/09/30 02:31:09;;;;;;;1999.90;999.90;;;;;;;;;;5060484;28;20056;-90
2023/09/30 02:33:37;;;;;;;1999.90;999.90;;;;;;;;;;5061013;28;20060;-89
2023/09/30 02:36:05;;;;;;;1999.90;999.90;;;;;;;;;;5054745;28;20049;-88
2023/09/30 02:38:32;;;;;;;1999.90;999.90;;;;;;;;;;5053832;28;20059;-89
2023/09/30 02:40:58;;;;;;;1999.90;999.90;;;;;;;;;;5058096;28;20064;-88
2023/09/30 02:43:25;;;;;;;1999.90;999.90;;;;;;;;;;5058630;28;20053;-90
2023/09/30 02:45:52;;;;;;;1999.90;999.90;;;;;;;;;;5048239;28;20049;-89
2023/09/30 02:48:20;;;;;;;1999.90;999.90;;;;;;;;;;5040937;28;20073;-89
2023/09/30 02:50:47;;;;;;;1999.90;999.90;;;;;;;;;;5050136;28;20041;-89
2023/09/30 02:53:14;;;;;;;1999.90;999.90;;;;;;;;;;5054982;28;20037;-90
2023/09/30 02:55:41;;;;;;;1999.90;999.90;;;;;;;;;;5064996;28;20074;-89
2023/09/30 02:58:08;;;;;;;1999.90;999.90;;;;;;;;;;5057603;28;20455;-90
2023/09/30 03:00:35;;;;;;;1999.90;999.90;;;;;;;;;;5056419;28;20496;-91
2023/09/30 03:03:03;;;;;;;1999.90;999.90;;;;;;;;;;5071610;28;20052;-90
2023/09/30 03:05:33;;;;;;;1999.90;999.90;;;;;;;;;;5060016;28;20064;-90
2023/09/30 03:08:00;;;;;;;1999.90;999.90;;;;;;;;;;5058820;28;20053;-89
2023/09/30 03:10:26;;;;;;;1999.90;999.90;;;;;;;;;;5053639;28;20049;-89
2023/09/30 03:13:01;;;;;;;1999.90;999.90;;;;;;;;;;5056808;28;20049;-89
2023/09/30 03:15:28;;;;;;;1999.90;999.90;;;;;;;;;;5055187;28;20130;-90
2023/09/30 03:17:55;;;;;;;1999.90;999.90;;;;;;;;;;5052093;28;20053;-89
2023/09/30 03:20:24;;;;;;;1999.90;999.90;;;;;;;;;;5056370;28;20044;-90
2023/09/30 03:22:53;;;;;;;1999.90;999.90;;;;;;;;;;5051703;28;20036;-89
2023/09/30 03:25:22;;;;;;;1999.90;999.90;;;;;;;;;;5057644;28;20059;-90
2023/09/30 03:27:48;;;;;;;1999.90;999.90;;;;;;;;;;5061728;28;20049;-89
2023/09/30 03:30:16;;;;;;;1999.90;999.90;;;;;;;;;;5049292;28;20519;-89
2023/09/30 03:32:42;;;;;;;1999.90;999.90;;;;;;;;;;5056365;28;20055;-89
2023/09/30 03:35:15;;;;;;;1999.90;999.90;;;;;;;;;;5048406;28;20868;-89
2023/09/30 03:37:41;;;;;;;1999.90;999.90;;;;;;;;;;5053466;28;20052;-92
2023/09/30 03:40:14;;;;;;;1999.90;999.90;;;;;;;;;;5063555;28;20048;-89
2023/09/30 03:42:59;;;;;;;1999.90;999.90;;;;;;;;;;5061790;28;20048;-89
2023/09/30 03:45:26;;;;;;;1999.90;999.90;;;;;;;;;;5057236;28;20378;-90
2023/09/30 03:47:52;;;;;;;1999.90;999.90;;;;;;;;;;5061621;28;20045;-90
2023/09/30 03:50:19;;;;;;;1999.90;999.90;;;;;;;;;;5069324;28;20164;-89
2023/09/30 03:52:46;;;;;;;1999.90;999.90;;;;;;;;;;5058783;28;20041;-89
2023/09/30 03:55:15;;;;;;;1999.90;999.90;;;;;;;;;;5059746;28;20048;-89
2023/09/30 03:57:41;;;;;;;1999.90;999.90;;;;;;;;;;5052420;28;20469;-90
2023/09/30 04:00:15;;;;;;;1999.90;999.90;;;;;;;;;;5054607;28;20044;-89
2023/09/30 04:02:42;;;;;;;1999.90;999.90;;;;;;;;;;5044838;28;20053;-89
2023/09/30 04:05:11;;;;;;;1999.90;999.90;;;;;;;;;;5056327;28;20102;-89
2023/09/30 04:07:38;;;;;;;1999.90;999.90;;;;;;;;;;5051703;28;20045;-89
2023/09/30 04:10:05;;;;;;;1999.90;999.90;;;;;;;;;;5057119;28;20056;-89
2023/09/30 04:12:33;;;;;;;1999.90;999.90;;;;;;;;;;5033265;28;20075;-90
2023/09/30 04:15:00;;;;;;;1999.90;999.90;;;;;;;;;;5057750;28;20045;-89
2023/09/30 04:17:27;;;;;;;1999.90;999.90;;;;;;;;;;5050892;28;20053;-90
2023/09/30 04:19:54;;;;;;;1999.90;999.90;;;;;;;;;;5060705;28;20049;-88
2023/09/30 04:22:21;;;;;;;1999.90;999.90;;;;;;;;;;5061105;28;20121;-89
2023/09/30 04:24:49;;;;;;;1999.90;999.90;;;;;;;;;;5049804;28;20049;-88
2023/09/30 04:27:16;;;;;;;1999.90;999.90;;;;;;;;;;5061568;28;20098;-90
2023/09/30 04:29:44;;;;;;;1999.90;999.90;;;;;;;;;;5056342;28;20481;-89
2023/09/30 04:32:10;;;;;;;1999.90;999.90;;;;;;;;;;5063631;28;20075;-89
2023/09/30 04:34:37;;;;;;;1999.90;999.90;;;;;;;;;;5058537;28;20053;-89
2023/09/30 04:37:04;;;;;;;1999.90;999.90;;;;;;;;;;5057677;28;20049;-88
2023/09/30 04:39:34;;;;;;;1999.90;999.90;;;;;;;;;;5062231;28;20052;-89
2023/09/30 04:42:01;;;;;;;1999.90;999.90;;;;;;;;;;5054636;28;20475;-88
2023/09/30 04:44:30;;;;;;;1999.90;999.90;;;;;;;;;;5046918;28;20056;-89
2023/09/30 04:46:59;;;;;;;1999.90;999.90;;;;;;;;;;5055532;28;20044;-89
2023/09/30 04:49:26;;;;;;;1999.90;999.90;;;;;;;;;;5056688;28;20067;-89
2023/09/30 04:51:52;;;;;;;1999.90;999.90;;;;;;;;;;5061375;28;20049;-90
2023/09/30 04:54:21;;;;;;;1999.90;999.90;;;;;;;;;;5054686;28;20049;-88
2023/09/30 04:56:47;;;;;;;1999.90;999.90;;;;;;;;;;5036403;28;20055;-89
2023/09/30 04:59:15;;;;;;;1999.90;999.90;;;;;;;;;;5038648;28;20060;-89
2023/09/30 05:01:41;;;;;;;1999.90;999.90;;;;;;;;;;5055985;28;20115;-88
2023/09/30 05:04:09;;;;;;;1999.90;999.90;;;;;;;;;;5052877;28;20524;-89
2023/09/30 05:06:37;;;;;;;1999.90;999.90;;;;;;;;;;5060974;28;20044;-90
2023/09/30 05:09:04;;;;;;;1999.90;999.90;;;;;;;;;;5053566;28;20752;-90
2023/09/30 05:11:31;;;;;;;1999.90;999.90;;;;;;;;;;5052319;28;20044;-90
2023/09/30 05:14:00;;;;;;;1999.90;999.90;;;;;;;;;;5057419;28;20557;-89
2023/09/30 05:16:27;;;;;;;1999.90;999.90;;;;;;;;;;5058390;28;20466;-89
2023/09/30 05:18:54;;;;;;;1999.90;999.90;;;;;;;;;;5057832;28;20119;-89
2023/09/30 05:21:22;;;;;;;1999.90;999.90;;;;;;;;;;5047875;28;20053;-89
2023/09/30 05:23:49;;;;;;;1999.90;999.90;;;;;;;;;;5050000;28;20052;-89
2023/09/30 05:26:16;;;;;;;1999.90;999.90;;;;;;;;;;5051987;28;20045;-89
2023/09/30 05:28:43;;;;;;;1999.90;999.90;;;;;;;;;;5026817;28;20065;-89
2023/09/30 05:31:09;;;;;;;1999.90;999.90;;;;;;;;;;5034691;28;20382;-89
2023/09/30 05:33:37;;;;;;;1999.90;999.90;;;;;;;;;;5040864;28;20049;-88
2023/09/30 05:36:04;;;;;;;1999.90;999.90;;;;;;;;;;5052909;28;20108;-89
2023/09/30 05:38:32;;;;;;;1999.90;999.90;;;;;;;;;;5056481;28;20052;-89
2023/09/30 05:41:00;;;;;;;1999.90;999.90;;;;;;;;;;5055427;28;20048;-88
2023/09/30 05:43:29;;;;;;;1999.90;999.90;;;;;;;;;;5053984;28;20110;-89
2023/09/30 05:45:56;;;;;;;1999.90;999.90;;;;;;;;;;5047054;28;20040;-90
2023/09/30 05:48:23;;;;;;;1999.90;999.90;;;;;;;;;;5053681;28;20497;-90
2023/09/30 05:50:50;;;;;;;1999.90;999.90;;;;;;;;;;5052179;28;20055;-89
2023/09/30 05:53:16;;;;;;;1999.90;999.90;;;;;;;;;;5044868;28;20472;-89
2023/09/30 05:55:45;;;;;;;1999.90;999.90;;;;;;;;;;5060160;28;20057;-89
2023/09/30 05:58:15;;;;;;;1999.90;999.90;;;;;;;;;;5060331;28;20106;-90
2023/09/30 06:00:42;;;;;;;1999.90;999.90;;;;;;;;;;5054056;28;20059;-90
2023/09/30 06:03:10;;;;;;;1999.90;999.90;;;;;;;;;;5062932;28;20512;-89
2023/09/30 06:05:40;;;;;;;1999.90;999.90;;;;;;;;;;5059626;28;20045;-89
2023/09/30 06:08:08;;;;;;;1999.90;999.90;;;;;;;;;;5056377;28;20067;-88
2023/09/30 06:10:37;;;;;;;1999.90;999.90;;;;;;;;;;5058763;28;20052;-89
2023/09/30 06:13:11;;;;;;;1999.90;999.90;;;;;;;;;;5060328;28;20067;-90
2023/09/30 06:15:41;;;;;;;1999.90;999.90;;;;;;;;;;5055051;28;20041;-89
2023/09/30 06:18:09;;;;;;;1999.90;999.90;;;;;;;;;;5047228;28;20049;-89
2023/09/30 06:20:36;;;;;;;1999.90;999.90;;;;;;;;;;5057550;28;20052;-89
2023/09/30 06:23:03;;;;;;;1999.90;999.90;;;;;;;;;;5055188;28;20124;-88
2023/09/30 06:25:32;;;;;;;1999.90;999.90;;;;;;;;;;5053345;28;20107;-90
2023/09/30 06:27:59;;;;;;;1999.90;999.90;;;;;;;;;;5053133;28;20049;-88
2023/09/30 06:30:30;;;;;;;1999.90;999.90;;;;;;;;;;5037303;28;20049;-89
2023/09/30 06:32:57;;;;;;;1999.90;999.90;;;;;;;;;;5057241;28;20055;-89
2023/09/30 06:35:24;;;;;;;1999.90;999.90;;;;;;;;;;5061191;28;20135;-89
2023/09/30 06:37:51;;;;;;;1999.90;999.90;;;;;;;;;;5056923;28;20049;-89
2023/09/30 06:40:18;;;;;;;1999.90;999.90;;;;;;;;;;5065472;28;20045;-89
2023/09/30 06:42:51;;;;;;;1999.90;999.90;;;;;;;;;;5054795;28;20153;-88
2023/09/30 06:45:18;;;;;;;1999.90;999.90;;;;;;;;;;5056188;28;20106;-89
2023/09/30 06:47:47;;;;;;;1999.90;999.90;;;;;;;;;;5064551;28;20059;-90
2023/09/30 06:50:16;;;;;;;1999.90;999.90;;;;;;;;;;5057390;28;20102;-88
2023/09/30 06:52:45;;;;;;;1999.90;999.90;;;;;;;;;;5058274;28;20146;-88
2023/09/30 06:55:13;;;;;;;1999.90;999.90;;;;;;;;;;5053006;28;20045;-89
2023/09/30 06:57:41;;;;;;;1999.90;999.90;;;;;;;;;;5056371;28;20053;-89
2023/09/30 07:00:09;;;;;;;1999.90;999.90;;;;;;;;;;5053969;28;20492;-89
2023/09/30 07:02:36;;;;;;;1999.90;999.90;;;;;;;;;;5060549;28;20056;-90
2023/09/30 07:05:06;;;;;;;1999.90;999.90;;;;;;;;;;5060254;28;20080;-89
2023/09/30 07:07:33;;;;;;;1999.90;999.90;;;;;;;;;;5057468;28;20423;-89
2023/09/30 07:10:00;;;;;;;1999.90;999.90;;;;;;;;;;5059325;28;20134;-89
2023/09/30 07:12:27;;;;;;;1999.90;999.90;;;;;;;;;;5057433;28;20045;-92
2023/09/30 07:14:54;;;;;;;1999.90;999.90;;;;;;;;;;5055910;28;20041;-89
2023/09/30 07:17:21;;;;;;;1999.90;999.90;;;;;;;;;;5061191;28;20056;-90
2023/09/30 07:19:48;;;;;;;1999.90;999.90;;;;;;;;;;5052846;28;20404;-91
2023/09/30 07:22:16;;;;;;;1999.90;999.90;;;;;;;;;;5042604;28;20060;-94
2023/09/30 07:24:44;;;;;;;1999.90;999.90;;;;;;;;;;5069487;28;20071;-91
2023/09/30 07:27:10;;;;;;;1999.90;999.90;;;;;;;;;;5053006;28;20053;-90
2023/09/30 07:29:37;;;;;;;1999.90;999.90;;;;;;;;;;5075179;28;20071;-91
2023/09/30 07:32:04;;;;;;;1999.90;999.90;;;;;;;;;;5046883;28;20041;-90
2023/09/30 07:34:31;;;;;;;1999.90;999.90;;;;;;;;;;5067259;28;20109;-90
2023/09/30 07:36:58;;;;;;;1999.90;999.90;;;;;;;;;;5044961;28;20045;-90
2023/09/30 07:39:26;;;;;;;1999.90;999.90;;;;;;;;;;5034430;28;20045;-91
2023/09/30 07:41:52;;;;;;;1999.90;999.90;;;;;;;;;;5046466;28;20049;-90
2023/09/30 07:47:41;;;;;;;1999.90;999.90;;;;;;;;;;5060653;28;20059;-91
2023/09/30 07:50:09;;;;;;;1999.90;999.90;;;;;;;;;;5062496;28;20045;-91
2023/09/30 07:52:36;;;;;;;1999.90;999.90;;;;;;;;;;5055487;28;20124;-91
2023/09/30 07:55:05;;;;;;;1999.90;999.90;;;;;;;;;;5065854;28;20127;-91
2023/09/30 07:57:33;;;;;;;1999.90;999.90;;;;;;;;;;5071765;28;20469;-91
2023/09/30 08:00:00;;;;;;;1999.90;999.90;;;;;;;;;;5059172;28;20068;-90
2023/09/30 08:02:32;;;;;;;1999.90;999.90;;;;;;;;;;5063140;28;20068;-92
2023/09/30 08:04:59;;;;;;;1999.90;999.90;;;;;;;;;;5075536;28;20059;-92
2023/09/30 08:07:26;;;;;;;1999.90;999.90;;;;;;;;;;5061317;28;20127;-88
2023/09/30 08:09:52;;;;;;;1999.90;999.90;;;;;;;;;;5054061;28;20056;-89
2023/09/30 08:12:21;;;;;;;1999.90;999.90;;;;;;;;;;5073564;28;20123;-90
2023/09/30 08:15:00;;;;;;;1999.90;999.90;;;;;;;;;;5070749;28;20048;-90
2023/09/30 08:17:27;;;;;;;1999.90;999.90;;;;;;;;;;5075879;28;20139;-93
2023/09/30 08:19:53;;;;;;;1999.90;999.90;;;;;;;;;;5075432;28;20052;-91
2023/09/30 08:22:27;;;;;;;1999.90;999.90;;;;;;;;;;5058306;28;20070;-94
2023/09/30 08:24:54;;;;;;;1999.90;999.90;;;;;;;;;;5073393;28;20057;-93
2023/09/30 08:27:24;;;;;;;1999.90;999.90;;;;;;;;;;5069276;28;20052;-91
2023/09/30 08:29:51;;;;;;;1999.90;999.90;;;;;;;;;;5060152;28;20051;-90
2023/09/30 08:32:17;;;;;;;1999.90;999.90;;;;;;;;;;5054949;28;20049;-95
2023/09/30 08:34:46;;;;;;;1999.90;999.90;;;;;;;;;;5036898;28;20060;-92
2023/09/30 08:37:13;;;;;;;1999.90;999.90;;;;;;;;;;5064159;28;20052;-92
2023/09/30 08:39:42;;;;;;;1999.90;999.90;;;;;;;;;;5062624;28;20063;-91
2023/09/30 08:42:11;;;;;;;1999.90;999.90;;;;;;;;;;5060408;28;20122;-91
2023/09/30 08:44:40;;;;;;;1999.90;999.90;;;;;;;;;;5056986;28;20408;-93
2023/09/30 08:47:07;;;;;;;1999.90;999.90;;;;;;;;;;5056897;28;20053;-93
2023/09/30 08:49:36;;;;;;;1999.90;999.90;;;;;;;;;;5036347;28;20044;-90
2023/09/30 08:52:03;;;;;;;1999.90;999.90;;;;;;;;;;5051163;28;20076;-81
2023/09/30 08:54:29;;;;;;;1999.90;999.90;;;;;;;;;;5057354;28;20044;-82
2023/09/30 08:56:56;;;;;;;1999.90;999.90;;;;;;;;;;5060437;28;20144;-83
2023/09/30 08:59:24;;;;;;;1999.90;999.90;;;;;;;;;;5054430;28;20393;-83
2023/09/30 09:01:52;;;;;;;1999.90;999.90;;;;;;;;;;5049963;28;20051;-83
2023/09/30 09:04:19;;;;;;;1999.90;999.90;;;;;;;;;;5057923;28;20516;-84
2023/09/30 09:06:45;;;;;;;1999.90;999.90;;;;;;;;;;5051612;28;20127;-81
2023/09/30 09:09:16;;;;;;;1999.90;999.90;;;;;;;;;;5056396;28;20071;-83
2023/09/30 09:11:43;;;;;;;1999.90;999.90;;;;;;;;;;5045573;28;20477;-85
2023/09/30 09:14:09;;;;;;;1999.90;999.90;;;;;;;;;;5057294;28;20051;-83
2023/09/30 09:16:36;;;;;;;1999.90;999.90;;;;;;;;;;5054685;28;20049;-84
2023/09/30 09:19:15;;;;;;;1999.90;999.90;;;;;;;;;;5057041;28;20052;-84
2023/09/30 09:21:54;;;;;;;1999.90;999.90;;;;;;;;;;5055054;28;20048;-84
2023/09/30 09:24:28;;;;;;;1999.90;999.90;;;;;;;;;;5058292;28;20057;-85
2023/09/30 09:27:04;;;;;;;1999.90;999.90;;;;;;;;;;5055683;28;20057;-83
2023/09/30 09:29:31;;;;;;;1999.90;999.90;;;;;;;;;;5052548;28;20052;-86
2023/09/30 09:32:08;;;;;;;1999.90;999.90;;;;;;;;;;5050551;28;20133;-82
2023/09/30 09:34:36;;;;;;;1999.90;999.90;;;;;;;;;;5059606;28;20468;-83
2023/09/30 09:37:13;;;;;;;1999.90;999.90;;;;;;;;;;5060540;28;20044;-84
2023/09/30 09:39:40;;;;;;;1999.90;999.90;;;;;;;;;;5059528;28;20055;-85
2023/09/30 09:42:06;;;;;;;1999.90;999.90;;;;;;;;;;5047462;28;20057;-83
2023/09/30 09:44:37;;;;;;;1999.90;999.90;;;;;;;;;;5056815;28;20131;-82
2023/09/30 09:47:06;;;;;;;1999.90;999.90;;;;;;;;;;5058880;28;20045;-83
2023/09/30 09:49:32;;;;;;;1999.90;999.90;;;;;;;;;;5053811;28;20048;-84
2023/09/30 09:52:01;;;;;;;1999.90;999.90;;;;;;;;;;5046940;28;20497;-83
2023/09/30 09:54:29;;;;;;;1999.90;999.90;;;;;;;;;;5045607;28;20037;-84
2023/09/30 09:56:57;;;;;;;1999.90;999.90;;;;;;;;;;5065178;28;20045;-83
2023/09/30 09:59:24;;;;;;;1999.90;999.90;;;;;;;;;;5053847;28;20055;-85
2023/09/30 10:01:51;;;;;;;1999.90;999.90;;;;;;;;;;5065541;28;20484;-84
2023/09/30 10:04:18;;;;;;;1999.90;999.90;;;;;;;;;;5067391;28;20424;-87
2023/09/30 10:06:47;;;;;;;1999.90;999.90;;;;;;;;;;5058650;28;20122;-82
2023/09/30 10:09:17;;;;;;;1999.90;999.90;;;;;;;;;;5057460;28;20095;-83
2023/09/30 10:11:43;;;;;;;1999.90;999.90;;;;;;;;;;5061091;28;20131;-84
2023/09/30 10:14:32;;;;;;;1999.90;999.90;;;;;;;;;;5066052;28;20053;-85
2023/09/30 10:16:59;;;;;;;1999.90;999.90;;;;;;;;;;5062382;28;20044;-82
2023/09/30 10:19:27;;;;;;;1999.90;999.90;;;;;;;;;;5063935;28;20051;-81
2023/09/30 10:22:30;;;;;;;1999.90;999.90;;;;;;;;;;5053490;28;20432;-84
2023/09/30 10:24:59;;;;;;;1999.90;999.90;;;;;;;;;;5059161;28;20374;-84
2023/09/30 10:27:32;;;;;;;1999.90;999.90;;;;;;;;;;5055020;28;20045;-86
2023/09/30 10:29:59;;;;;;;1999.90;999.90;;;;;;;;;;5061910;28;20094;-84
2023/09/30 10:33:11;;;;;;;1999.90;999.90;;;;;;;;;;5066231;28;20055;-84
2023/09/30 10:35:45;;;;;;;1999.90;999.90;;;;;;;;;;5051965;28;20434;-82
2023/09/30 10:38:42;;;;;;;1999.90;999.90;;;;;;;;;;5062167;28;20048;-82
2023/09/30 10:41:11;;;;;;;1999.90;999.90;;;;;;;;;;5053209;28;20046;-81
2023/09/30 10:43:42;;;;;;;1999.90;999.90;;;;;;;;;;5062990;28;20048;-82
2023/09/30 10:46:31;;;;;;;1999.90;999.90;;;;;;;;;;5063738;28;20052;-82
2023/09/30 10:48:58;;;;;;;1999.90;999.90;;;;;;;;;;5056580;28;20044;-81
2023/09/30 10:51:24;;;;;;;1999.90;999.90;;;;;;;;;;5059373;28;20048;-84
2023/09/30 10:53:52;;;;;;;1999.90;999.90;;;;;;;;;;5053989;28;20044;-85
2023/09/30 10:56:21;;;;;;;1999.90;999.90;;;;;;;;;;5061731;28;20044;-84
2023/09/30 10:58:48;;;;;;;1999.90;999.90;;;;;;;;;;5060990;28;20087;-83
2023/09/30 11:01:17;;;;;;;1999.90;999.90;;;;;;;;;;5056324;28;20481;-86
2023/09/30 11:03:45;;;;;;;1999.90;999.90;;;;;;;;;;5049234;28;20057;-83
2023/09/30 11:06:17;;;;;;;1999.90;999.90;;;;;;;;;;5058053;28;20090;-85
2023/09/30 11:08:46;;;;;;;1999.90;999.90;;;;;;;;;;5059820;28;20041;-84
2023/09/30 11:11:14;;;;;;;1999.90;999.90;;;;;;;;;;5055961;28;20053;-84
2023/09/30 11:13:47;;;;;;;1999.90;999.90;;;;;;;;;;5064463;28;20041;-81
2023/09/30 11:16:14;;;;;;;1999.90;999.90;;;;;;;;;;5061060;28;20401;-82
2023/09/30 11:18:40;;;;;;;1999.90;999.90;;;;;;;;;;5066776;28;20045;-84
2023/09/30 11:21:08;;;;;;;1999.90;999.90;;;;;;;;;;5056587;28;20049;-87
2023/09/30 11:23:35;;;;;;;1999.90;999.90;;;;;;;;;;5067498;28;20079;-84
2023/09/30 11:26:02;;;;;;;1999.90;999.90;;;;;;;;;;5065843;28;20131;-84
2023/09/30 11:28:37;;;;;;;1999.90;999.90;;;;;;;;;;5060241;28;20047;-87
2023/09/30 11:31:06;;;;;;;1999.90;999.90;;;;;;;;;;5058109;28;20051;-82
2023/09/30 11:33:33;;;;;;;1999.90;999.90;;;;;;;;;;5054878;28;20084;-84
2023/09/30 11:36:02;;;;;;;1999.90;999.90;;;;;;;;;;5063324;28;20052;-83
2023/09/30 11:38:29;;;;;;;1999.90;999.90;;;;;;;;;;5060321;28;20041;-83
2023/09/30 11:41:05;;;;;;;1999.90;999.90;;;;;;;;;;5049576;28;20041;-82
2023/09/30 11:43:37;;;;;;;1999.90;999.90;;;;;;;;;;5066349;28;20041;-83
2023/09/30 11:46:10;;;;;;;1999.90;999.90;;;;;;;;;;5053738;28;20064;-83
2023/09/30 11:48:37;;;;;;;1999.90;999.90;;;;;;;;;;5049860;28;20507;-83
2023/09/30 11:51:04;;;;;;;1999.90;999.90;;;;;;;;;;5059475;28;20041;-82
2023/09/30 11:53:31;;;;;;;1999.90;999.90;;;;;;;;;;5060002;28;20048;-81
2023/09/30 11:55:59;;;;;;;1999.90;999.90;;;;;;;;;;5056199;28;20049;-81
2023/09/30 11:58:27;;;;;;;1999.90;999.90;;;;;;;;;;5062059;28;20047;-83
2023/09/30 12:00:57;;;;;;;1999.90;999.90;;;;;;;;;;5059515;28;20046;-85
2023/09/30 12:03:25;;;;;;;1999.90;999.90;;;;;;;;;;5061711;28;20388;-83
2023/09/30 12:05:51;;;;;;;1999.90;999.90;;;;;;;;;;5046677;28;20045;-85
2023/09/30 12:08:19;;;;;;;1999.90;999.90;;;;;;;;;;5045691;28;20052;-83
2023/09/30 12:10:45;;;;;;;1999.90;999.90;;;;;;;;;;5061869;28;20443;-84
2023/09/30 12:13:12;;;;;;;1999.90;999.90;;;;;;;;;;5065797;28;20048;-83
2023/09/30 12:15:39;;;;;;;1999.90;999.90;;;;;;;;;;5052119;28;20482;-84
2023/09/30 12:18:06;;;;;;;1999.90;999.90;;;;;;;;;;5057391;28;20559;-87
2023/09/30 12:20:34;;;;;;;1999.90;999.90;;;;;;;;;;5056146;28;20069;-83
2023/09/30 12:23:01;;;;;;;1999.90;999.90;;;;;;;;;;5061284;28;20090;-83
2023/09/30 12:25:28;;;;;;;1999.90;999.90;;;;;;;;;;5061302;28;20049;-83
2023/09/30 12:27:55;;;;;;;1999.90;999.90;;;;;;;;;;5051775;28;20399;-83
2023/09/30 12:30:22;;;;;;;1999.90;999.90;;;;;;;;;;5053874;28;20076;-82
2023/09/30 12:32:48;;;;;;;1999.90;999.90;;;;;;;;;;5060078;28;20071;-81
2023/09/30 12:35:15;;;;;;;1999.90;999.90;;;;;;;;;;5062418;28;20044;-82
2023/09/30 12:37:45;;;;;;;1999.90;999.90;;;;;;;;;;5057111;28;20045;-83
2023/09/30 12:40:16;;;;;;;1999.90;999.90;;;;;;;;;;5050121;28;20481;-84
2023/09/30 12:42:52;;;;;;;1999.90;999.90;;;;;;;;;;5056378;28;20045;-84
2023/09/30 12:45:19;;;;;;;1999.90;999.90;;;;;;;;;;5059458;28;20378;-83
2023/09/30 12:47:47;;;;;;;1999.90;999.90;;;;;;;;;;5052743;28;20060;-82
2023/09/30 12:50:13;;;;;;;1999.90;999.90;;;;;;;;;;5053536;28;20053;-84
2023/09/30 12:52:40;;;;;;;1999.90;999.90;;;;;;;;;;5055830;28;20044;-84
2023/09/30 12:55:10;;;;;;;1999.90;999.90;;;;;;;;;;5065870;28;20140;-85
2023/09/30 12:57:36;;;;;;;1999.90;999.90;;;;;;;;;;5051067;28;20094;-83
2023/09/30 13:00:04;;;;;;;1999.90;999.90;;;;;;;;;;5066599;28;20055;-86
2023/09/30 13:02:31;;;;;;;1999.90;999.90;;;;;;;;;;5059164;28;20086;-88
2023/09/30 13:04:57;;;;;;;1999.90;999.90;;;;;;;;;;5062055;28;20072;-81
2023/09/30 13:07:24;;;;;;;1999.90;999.90;;;;;;;;;;5058335;28;20063;-85
2023/09/30 13:09:51;;;;;;;1999.90;999.90;;;;;;;;;;5065967;28;20055;-83
2023/09/30 13:12:19;;;;;;;1999.90;999.90;;;;;;;;;;5061661;28;20139;-83
2023/09/30 13:14:46;;;;;;;1999.90;999.90;;;;;;;;;;5050306;28;20060;-84
2023/09/30 13:17:14;;;;;;;1999.90;999.90;;;;;;;;;;5051711;28;20090;-81
2023/09/30 13:19:41;;;;;;;1999.90;999.90;;;;;;;;;;5056141;28;20049;-81
2023/09/30 13:22:08;;;;;;;1999.90;999.90;;;;;;;;;;5059036;28;20106;-83
2023/09/30 13:24:39;;;;;;;1999.90;999.90;;;;;;;;;;5059901;28;20041;-81
2023/09/30 13:27:05;;;;;;;1999.90;999.90;;;;;;;;;;5051978;28;20568;-81
2023/09/30 13:29:33;;;;;;;1999.90;999.90;;;;;;;;;;5055453;28;20484;-82
2023/09/30 13:32:00;;;;;;;1999.90;999.90;;;;;;;;;;5065148;28;20056;-82
2023/09/30 13:34:26;;;;;;;1999.90;999.90;;;;;;;;;;5061878;28;20052;-80
2023/09/30 13:36:53;;;;;;;1999.90;999.90;;;;;;;;;;5064490;28;20127;-82
2023/09/30 13:39:20;;;;;;;1999.90;999.90;;;;;;;;;;5060264;28;20052;-82
2023/09/30 13:41:47;;;;;;;1999.90;999.90;;;;;;;;;;5056842;28;20083;-83
2023/09/30 13:44:14;;;;;;;1999.90;999.90;;;;;;;;;;5050618;28;20049;-82
2023/09/30 13:46:42;;;;;;;1999.90;999.90;;;;;;;;;;5077993;28;20045;-87
2023/09/30 13:49:09;;;;;;;1999.90;999.90;;;;;;;;;;5069354;28;20020;-83
2023/09/30 13:51:35;;;;;;;1999.90;999.90;;;;;;;;;;5061348;28;20044;-82